Time;durP1;ratioP1;P1;durP2;ratioP2;P2;SDS_P1;SDS_P2;PMS_P1;PMS_P2;Temp;Humidity;BMP_temperature;BMP_pressure;BME280_temperature;BME280_humidity;BME280_pressure;Samples;Min_cycle;Max_cycle;Signal;HPM_P1;HPM_P2
2022/05/27 00:01:11;;;;;;;1.67;1.40;;;;;;;15.93;65.51;97308.13;5011350;28;20640;-70
2022/05/27 00:03:37;;;;;;;1.10;1.10;;;;;;;15.86;65.94;97307.50;5013120;28;20206;-69
2022/05/27 00:06:03;;;;;;;1.07;1.00;;;;;;;15.79;66.08;97299.75;5012840;28;20647;-69
2022/05/27 00:08:28;;;;;;;1.03;1.03;;;;;;;15.74;66.68;97302.34;5010289;28;20243;-69
2022/05/27 00:10:55;;;;;;;1.60;1.33;;;;;;;15.77;66.41;97309.75;5011696;28;20773;-69
2022/05/27 00:13:21;;;;;;;1.73;1.20;;;;;;;15.58;67.29;97300.56;4995146;28;20187;-70
2022/05/27 00:15:47;;;;;;;1.13;1.10;;;;;;;15.73;66.76;97302.56;5013139;28;20192;-69
2022/05/27 00:18:12;;;;;;;1.20;1.13;;;;;;;15.58;67.48;97300.56;5013217;28;20648;-69
2022/05/27 00:20:37;;;;;;;1.40;1.30;;;;;;;15.59;67.34;97296.88;5012198;28;20187;-69
2022/05/27 00:23:03;;;;;;;2.33;1.40;;;;;;;15.42;67.84;97306.66;5013033;28;20180;-69
2022/05/27 00:25:29;;;;;;;5.33;1.50;;;;;;;15.39;68.17;97302.66;5012515;28;20189;-70
2022/05/27 00:27:54;;;;;;;2.00;1.47;;;;;;;15.60;67.37;97295.84;5012736;28;20275;-69
2022/05/27 00:30:20;;;;;;;1.60;1.50;;;;;;;15.41;68.09;97297.13;5012483;28;20198;-70
2022/05/27 00:32:45;;;;;;;1.13;1.13;;;;;;;15.37;68.64;97296.81;5012768;28;20195;-68
2022/05/27 00:35:11;;;;;;;1.40;1.10;;;;;;;15.38;68.31;97293.13;5011935;28;20175;-69
2022/05/27 00:37:37;;;;;;;1.43;1.33;;;;;;;15.55;67.58;97294.97;5012916;28;20191;-68
2022/05/27 00:40:03;;;;;;;1.43;1.00;;;;;;;15.42;68.25;97300.56;5012539;28;20219;-69
2022/05/27 00:42:29;;;;;;;2.40;1.30;;;;;;;15.42;68.53;97297.94;5012768;28;20175;-69
2022/05/27 00:44:54;;;;;;;1.70;1.20;;;;;;;15.40;68.25;97303.44;5012830;28;20190;-68
2022/05/27 00:47:22;;;;;;;1.53;1.20;;;;;;;15.37;68.58;97296.03;4994984;28;20606;-69
2022/05/27 00:49:55;;;;;;;1.20;1.20;;;;;;;15.42;68.21;97293.44;5012565;28;20195;-69
2022/05/27 00:52:23;;;;;;;2.03;1.17;;;;;;;15.29;68.66;97289.31;5006410;28;20199;-69
2022/05/27 00:54:48;;;;;;;1.73;1.60;;;;;;;15.14;69.57;97288.31;4996742;28;20672;-69
2022/05/27 00:57:20;;;;;;;1.63;1.30;;;;;;;15.09;69.73;97277.69;5016631;28;20274;-70
2022/05/27 00:59:53;;;;;;;1.43;1.33;;;;;;;15.13;69.80;97276.94;5016751;28;20644;-69
2022/05/27 01:02:19;;;;;;;1.83;1.30;;;;;;;15.10;70.11;97277.41;5016655;28;20632;-69
2022/05/27 01:04:46;;;;;;;1.90;1.40;;;;;;;15.27;69.45;97277.38;5016083;28;20183;-70
2022/05/27 01:07:12;;;;;;;1.47;1.30;;;;;;;15.06;70.42;97276.31;5016323;28;20207;-73
2022/05/27 01:09:39;;;;;;;1.00;1.00;;;;;;;15.00;70.63;97274.63;5010602;28;20234;-69
2022/05/27 01:12:25;;;;;;;1.47;1.37;;;;;;;14.94;70.93;97263.19;5016492;28;20282;-70
2022/05/27 01:15:28;;;;;;;1.40;1.30;;;;;;;14.93;70.86;97271.38;5028342;28;20230;-69
2022/05/27 01:18:08;;;;;;;1.30;1.20;;;;;;;15.02;70.61;97263.84;5008795;28;20186;-69
2022/05/27 01:20:50;;;;;;;1.20;1.20;;;;;;;14.92;70.93;97267.13;5015806;28;20689;-71
2022/05/27 01:23:31;;;;;;;1.50;1.27;;;;;;;14.99;70.85;97275.66;5016289;28;20210;-69
2022/05/27 01:26:17;;;;;;;1.70;1.50;;;;;;;14.90;71.30;97272.66;5016293;28;20648;-69
2022/05/27 01:29:19;;;;;;;1.43;1.33;;;;;;;14.85;71.52;97271.78;5016133;28;20179;-69
2022/05/27 01:31:50;;;;;;;1.90;1.50;;;;;;;14.99;71.07;97271.19;5015869;28;20659;-69
2022/05/27 01:34:33;;;;;;;3.60;1.33;;;;;;;15.02;70.79;97264.63;5015414;28;20266;-68
2022/05/27 01:37:37;;;;;;;1.43;1.33;;;;;;;14.87;71.76;97270.50;5016188;28;20179;-69
2022/05/27 01:40:15;;;;;;;1.50;1.40;;;;;;;14.99;71.04;97265.91;5014577;28;20215;-69
2022/05/27 01:42:49;;;;;;;1.40;1.30;;;;;;;14.86;71.54;97266.25;5015736;28;20187;-69
2022/05/27 01:45:21;;;;;;;2.00;1.50;;;;;;;15.00;71.22;97266.72;5015514;28;20190;-69
2022/05/27 01:47:56;;;;;;;1.50;1.40;;;;;;;14.86;71.51;97268.91;5012734;28;20183;-70
2022/05/27 01:50:33;;;;;;;1.20;1.10;;;;;;;14.79;71.88;97272.75;5015657;28;20238;-69
2022/05/27 01:53:05;;;;;;;1.67;1.20;;;;;;;14.74;72.14;97264.75;5014218;28;20221;-70
2022/05/27 01:55:40;;;;;;;1.57;1.47;;;;;;;14.79;71.97;97256.91;5014988;28;20176;-69
2022/05/27 01:58:32;;;;;;;1.50;1.37;;;;;;;14.79;72.04;97257.72;5015550;28;20217;-69
2022/05/27 02:00:57;;;;;;;1.30;1.27;;;;;;;14.73;72.92;97256.03;5012086;28;20191;-70
2022/05/27 02:03:32;;;;;;;1.43;1.33;;;;;;;14.78;72.37;97256.09;5015122;28;20245;-71
2022/05/27 02:06:33;;;;;;;1.50;1.40;;;;;;;14.72;72.61;97253.63;5015052;28;20186;-70
2022/05/27 02:09:15;;;;;;;1.20;1.10;;;;;;;14.74;72.67;97249.72;4976285;28;20214;-69
2022/05/27 02:11:43;;;;;;;1.50;1.40;;;;;;;14.72;72.73;97248.34;5014095;28;20183;-70
2022/05/27 02:14:16;;;;;;;1.40;1.30;;;;;;;14.76;72.56;97246.84;5015220;28;20202;-69
2022/05/27 02:16:48;;;;;;;1.50;1.40;;;;;;;14.60;73.13;97248.44;5014982;28;20179;-70
2022/05/27 02:19:25;;;;;;;1.43;1.33;;;;;;;14.51;74.02;97248.03;5014999;28;20316;-70
2022/05/27 02:21:55;;;;;;;3.60;1.70;;;;;;;14.55;73.70;97245.72;5014964;28;20179;-72
2022/05/27 02:24:36;;;;;;;1.90;1.30;;;;;;;14.49;73.98;97241.41;5014735;28;20194;-71
2022/05/27 02:27:06;;;;;;;1.63;1.37;;;;;;;14.41;74.29;97239.97;5001805;28;20218;-71
2022/05/27 02:29:33;;;;;;;1.63;1.53;;;;;;;14.36;74.64;97247.78;5014763;28;20298;-70
2022/05/27 02:32:16;;;;;;;1.60;1.50;;;;;;;14.54;73.71;97239.63;5015081;28;20661;-70
2022/05/27 02:35:08;;;;;;;1.60;1.50;;;;;;;14.47;74.30;97243.50;5014297;28;20190;-70
2022/05/27 02:37:43;;;;;;;1.67;1.17;;;;;;;14.35;75.00;97240.09;5014220;28;20640;-71
2022/05/27 02:40:22;;;;;;;1.63;1.53;;;;;;;14.20;75.49;97237.22;4996904;28;20578;-70
2022/05/27 02:42:52;;;;;;;1.83;1.30;;;;;;;14.29;75.57;97227.84;4988885;28;20177;-70
2022/05/27 02:45:42;;;;;;;2.67;1.67;;;;;;;14.46;74.98;97220.78;5014946;28;20194;-70
2022/05/27 02:48:07;;;;;;;2.00;1.53;;;;;;;14.24;75.49;97223.31;5009564;28;20187;-70
2022/05/27 02:50:49;;;;;;;3.60;1.60;;;;;;;14.09;76.25;97221.22;5014742;28;20183;-70
2022/05/27 02:53:22;;;;;;;2.10;1.40;;;;;;;14.07;76.72;97225.13;5006601;28;20191;-71
2022/05/27 02:55:56;;;;;;;1.70;1.60;;;;;;;14.10;76.63;97214.91;5014085;28;20251;-70
2022/05/27 02:58:22;;;;;;;1.50;1.50;;;;;;;14.37;75.41;97216.97;5014467;28;20229;-71
2022/05/27 03:00:47;;;;;;;3.13;1.60;;;;;;;14.06;76.87;97218.25;5014147;28;20179;-70
2022/05/27 03:03:13;;;;;;;2.50;1.70;;;;;;;14.12;76.99;97225.22;5014065;28;20274;-71
2022/05/27 03:05:55;;;;;;;1.90;1.47;;;;;;;14.07;77.38;97230.41;5013915;28;20546;-70
2022/05/27 03:08:48;;;;;;;2.17;1.90;;;;;;;14.22;76.62;97224.56;5006608;28;20198;-70
2022/05/27 03:11:31;;;;;;;2.10;1.90;;;;;;;14.05;77.37;97230.63;5013966;28;20175;-71
2022/05/27 03:14:12;;;;;;;2.10;1.63;;;;;;;14.31;76.38;97233.72;5014344;28;20637;-70
2022/05/27 03:16:47;;;;;;;1.67;1.53;;;;;;;14.09;77.50;97225.69;5014164;28;20180;-70
2022/05/27 03:19:47;;;;;;;2.23;1.80;;;;;;;14.02;77.97;97222.41;5013825;28;20230;-71
2022/05/27 03:22:12;;;;;;;1.70;1.60;;;;;;;14.06;78.07;97208.50;5014070;28;20218;-69
2022/05/27 03:25:04;;;;;;;2.03;1.57;;;;;;;14.43;76.12;97219.41;5013904;28;20191;-70
2022/05/27 03:27:42;;;;;;;1.77;1.60;;;;;;;14.24;76.83;97214.59;5013430;28;20179;-71
2022/05/27 03:30:19;;;;;;;2.00;1.80;;;;;;;14.22;77.11;97219.28;5013881;28;20214;-70
2022/05/27 03:33:03;;;;;;;2.10;1.60;;;;;;;14.21;77.10;97220.38;5013801;28;20179;-69
2022/05/27 03:35:53;;;;;;;1.60;1.50;;;;;;;14.27;76.76;97220.19;5013307;28;20184;-70
2022/05/27 03:38:39;;;;;;;3.27;1.37;;;;;;;14.28;76.99;97221.78;5013742;28;20210;-71
2022/05/27 03:41:11;;;;;;;2.50;1.50;;;;;;;14.29;77.11;97228.66;5013786;28;20207;-71
2022/05/27 03:43:38;;;;;;;2.43;1.60;;;;;;;14.41;76.61;97226.00;4978480;28;20173;-71
2022/05/27 03:46:04;;;;;;;2.43;1.50;;;;;;;14.42;76.48;97228.41;5013588;28;20179;-71
2022/05/27 03:48:32;;;;;;;1.70;1.60;;;;;;;14.51;76.11;97234.84;5013335;28;20191;-72
2022/05/27 03:51:04;;;;;;;1.57;1.47;;;;;;;14.37;76.60;97241.50;5013451;28;20215;-74
2022/05/27 03:56:14;;;;;;;1.87;1.60;;;;;;;14.51;76.22;97234.06;5013447;28;20547;-71
2022/05/27 03:58:39;;;;;;;2.00;1.50;;;;;;;14.61;75.93;97236.84;5013299;28;20203;-72
2022/05/27 04:01:05;;;;;;;2.10;1.90;;;;;;;14.56;75.95;97228.84;4995474;28;20271;-71
2022/05/27 04:03:30;;;;;;;4.27;2.30;;;;;;;14.54;76.06;97238.88;5012987;28;20187;-71
2022/05/27 04:05:56;;;;;;;1.83;1.57;;;;;;;14.58;76.00;97234.69;5013089;28;20194;-71
2022/05/27 04:08:21;;;;;;;1.57;1.47;;;;;;;14.63;75.67;97239.25;5004925;28;20252;-70
2022/05/27 04:10:46;;;;;;;4.33;1.80;;;;;;;14.80;74.40;97238.19;5013019;28;20241;-70
2022/05/27 04:13:12;;;;;;;1.87;1.77;;;;;;;14.67;75.33;97240.34;5012985;28;20298;-72
2022/05/27 04:15:37;;;;;;;1.47;1.37;;;;;;;14.69;75.25;97238.28;5011932;28;20176;-71
2022/05/27 04:18:03;;;;;;;2.23;1.43;;;;;;;14.81;74.94;97242.44;5012796;28;20239;-70
2022/05/27 04:20:29;;;;;;;1.47;1.37;;;;;;;14.79;75.16;97236.59;5012925;28;20213;-70
2022/05/27 04:22:54;;;;;;;2.20;1.83;;;;;;;14.77;75.24;97238.66;5013123;28;20270;-71
2022/05/27 04:25:20;;;;;;;1.80;1.70;;;;;;;14.76;74.74;97242.38;5012666;28;20183;-71
2022/05/27 04:27:46;;;;;;;2.47;1.67;;;;;;;14.79;74.91;97238.44;5012647;28;20206;-71
2022/05/27 04:30:13;;;;;;;2.43;1.70;;;;;;;14.86;74.71;97239.06;5012467;28;20178;-71
2022/05/27 04:32:38;;;;;;;1.60;1.50;;;;;;;14.47;76.79;97239.03;5012939;28;20198;-71
2022/05/27 04:35:05;;;;;;;1.83;1.70;;;;;;;14.74;75.51;97239.16;5012411;28;20706;-71
2022/05/27 04:37:30;;;;;;;1.57;1.47;;;;;;;14.76;75.45;97249.50;5012741;28;20266;-72
2022/05/27 04:39:56;;;;;;;2.03;1.93;;;;;;;14.52;76.59;97236.47;5013023;28;20627;-71
2022/05/27 04:42:21;;;;;;;1.40;1.37;;;;;;;14.72;75.80;97233.31;5012465;28;20242;-71
2022/05/27 04:44:47;;;;;;;1.50;1.40;;;;;;;14.92;74.76;97233.63;5012997;28;20269;-71
2022/05/27 04:47:12;;;;;;;4.40;2.03;;;;;;;14.80;75.17;97230.28;5012962;28;20195;-71
2022/05/27 04:49:50;;;;;;;2.17;1.40;;;;;;;14.63;75.91;97233.97;5013107;28;20214;-71
2022/05/27 04:52:16;;;;;;;2.53;1.70;;;;;;;14.63;75.98;97233.97;5011341;28;20238;-71
2022/05/27 04:54:42;;;;;;;1.93;1.13;;;;;;;14.44;77.06;97228.94;5012829;28;20643;-72
2022/05/27 04:57:13;;;;;;;1.87;1.60;;;;;;;14.31;77.50;97225.78;5012741;28;20186;-71
2022/05/27 04:59:40;;;;;;;2.30;2.00;;;;;;;14.44;78.37;97225.50;5012486;28;20210;-72
2022/05/27 05:02:05;;;;;;;2.07;1.77;;;;;;;14.98;75.44;97234.50;5012562;28;20192;-71
2022/05/27 05:04:31;;;;;;;2.73;1.70;;;;;;;15.12;74.59;97227.00;5012667;28;20183;-72
2022/05/27 05:07:03;;;;;;;3.43;1.70;;;;;;;15.46;73.53;97239.06;5002804;28;20637;-71
2022/05/27 05:09:28;;;;;;;1.93;1.80;;;;;;;16.08;71.21;97231.59;5010197;28;20266;-72
2022/05/27 05:11:54;;;;;;;3.70;1.70;;;;;;;16.67;68.77;97236.84;5012803;28;20246;-72
2022/05/27 05:14:19;;;;;;;3.20;1.40;;;;;;;16.34;69.25;97239.72;5012728;28;20241;-72
2022/05/27 05:16:44;;;;;;;1.77;1.30;;;;;;;16.79;67.61;97248.06;5012495;28;20191;-71
2022/05/27 05:19:10;;;;;;;2.50;1.27;;;;;;;16.89;67.18;97247.31;5012462;28;20277;-72
2022/05/27 05:21:36;;;;;;;1.50;1.40;;;;;;;16.94;67.15;97250.81;4994419;28;20275;-71
2022/05/27 05:24:04;;;;;;;2.53;1.60;;;;;;;16.62;68.02;97252.69;5012265;28;20226;-72
2022/05/27 05:26:29;;;;;;;2.20;1.60;;;;;;;16.42;68.57;97250.66;5012253;28;20619;-72
2022/05/27 05:28:55;;;;;;;2.17;1.53;;;;;;;16.54;68.35;97251.31;5012329;28;20275;-71
2022/05/27 05:31:20;;;;;;;1.40;1.37;;;;;;;16.67;68.22;97247.44;5012019;28;20179;-72
2022/05/27 05:33:45;;;;;;;3.47;1.90;;;;;;;16.38;69.33;97248.78;5011472;28;20275;-72
2022/05/27 05:36:11;;;;;;;1.70;1.60;;;;;;;16.14;70.28;97249.09;5011945;28;20246;-71
2022/05/27 05:38:36;;;;;;;2.03;1.60;;;;;;;16.15;70.15;97249.91;5011914;28;20214;-72
2022/05/27 05:41:02;;;;;;;4.07;1.80;;;;;;;16.24;69.81;97245.75;5012356;28;20210;-72
2022/05/27 05:43:27;;;;;;;2.47;1.50;;;;;;;16.03;71.25;97255.34;5014275;28;20186;-72
2022/05/27 05:45:53;;;;;;;3.97;1.60;;;;;;;15.99;71.81;97261.38;5015134;28;20218;-72
2022/05/27 05:48:18;;;;;;;2.90;1.70;;;;;;;15.88;72.34;97265.75;5015318;28;20519;-72
2022/05/27 05:50:44;;;;;;;3.40;1.70;;;;;;;16.07;71.72;97266.19;4994488;28;20191;-71
2022/05/27 05:53:09;;;;;;;5.47;1.77;;;;;;;15.93;71.79;97260.53;5008814;28;20194;-72
2022/05/27 05:55:35;;;;;;;1.70;1.60;;;;;;;16.09;71.93;97254.34;5015200;28;20194;-72
2022/05/27 05:58:02;;;;;;;2.87;1.77;;;;;;;16.18;71.76;97258.13;5015264;28;20180;-71
2022/05/27 06:00:28;;;;;;;1.77;1.60;;;;;;;16.27;71.67;97252.38;5014892;28;20241;-71
2022/05/27 06:02:54;;;;;;;1.73;1.63;;;;;;;16.38;71.22;97257.53;5014755;28;20485;-71
2022/05/27 06:05:21;;;;;;;1.30;1.30;;;;;;;16.22;71.88;97255.75;5014654;28;20210;-72
2022/05/27 06:07:47;;;;;;;1.90;1.70;;;;;;;16.12;72.23;97250.38;5012599;28;20207;-71
2022/05/27 06:10:16;;;;;;;2.77;1.50;;;;;;;16.17;72.00;97253.06;5015283;28;20198;-70
2022/05/27 06:12:41;;;;;;;1.40;1.30;;;;;;;16.12;72.50;97253.81;5014921;28;20195;-70
2022/05/27 06:15:11;;;;;;;1.67;1.57;;;;;;;16.39;71.50;97248.50;5015013;28;20237;-70
2022/05/27 06:17:37;;;;;;;1.60;1.40;;;;;;;16.55;70.80;97249.47;5015408;28;20633;-71
2022/05/27 06:20:04;;;;;;;2.90;1.80;;;;;;;16.44;71.28;97253.06;5014724;28;20242;-71
2022/05/27 06:22:31;;;;;;;1.73;1.63;;;;;;;16.54;71.61;97253.94;5014286;28;20183;-70
2022/05/27 06:24:58;;;;;;;2.87;1.83;;;;;;;16.48;71.68;97251.50;5014286;28;20186;-71
2022/05/27 06:27:24;;;;;;;3.07;1.70;;;;;;;16.70;71.09;97248.78;5014623;28;20188;-69
2022/05/27 06:35:17;;;;;;;2.00;1.90;;;;;;;16.76;70.55;97248.59;5013704;28;20183;-68
2022/05/27 06:37:43;;;;;;;1.60;1.50;;;;;;;16.37;72.59;97249.81;5014339;28;20195;-70
2022/05/27 06:40:09;;;;;;;1.90;1.70;;;;;;;16.36;72.98;97251.66;5013851;28;20254;-69
2022/05/27 06:42:37;;;;;;;1.70;1.57;;;;;;;16.68;71.99;97264.13;5014654;28;20194;-69
2022/05/27 06:45:03;;;;;;;1.97;1.80;;;;;;;16.81;70.92;97256.56;5013743;28;20188;-69
2022/05/27 06:47:29;;;;;;;1.87;1.70;;;;;;;16.92;70.32;97268.81;5014500;28;20539;-69
2022/05/27 06:49:54;;;;;;;4.27;1.83;;;;;;;16.86;70.46;97275.13;5014079;28;20195;-69
2022/05/27 06:52:20;;;;;;;2.73;2.17;;;;;;;16.54;71.65;97269.03;5014131;28;20180;-70
2022/05/27 06:54:46;;;;;;;2.83;2.00;;;;;;;16.61;71.53;97277.56;5013714;28;20549;-70
2022/05/27 06:57:12;;;;;;;2.60;1.90;;;;;;;16.84;70.91;97269.28;5014153;28;20176;-70
2022/05/27 06:59:37;;;;;;;1.97;1.87;;;;;;;16.88;70.56;97266.94;5001914;28;20200;-69
2022/05/27 07:02:04;;;;;;;2.77;2.30;;;;;;;16.92;70.05;97268.00;4996454;28;20191;-70
2022/05/27 07:04:29;;;;;;;5.70;2.10;;;;;;;16.77;71.00;97276.66;5013095;28;20598;-70
2022/05/27 07:06:57;;;;;;;3.70;1.93;;;;;;;16.73;71.33;97272.91;5003002;28;20198;-70
2022/05/27 07:09:24;;;;;;;3.17;2.00;;;;;;;16.70;71.70;97275.25;5013323;28;20194;-70
2022/05/27 07:11:52;;;;;;;2.73;2.17;;;;;;;16.50;72.71;97270.56;5023877;28;20540;-69
2022/05/27 07:14:18;;;;;;;1.80;1.70;;;;;;;16.41;73.02;97275.53;5013731;28;20267;-69
2022/05/27 07:16:46;;;;;;;4.23;1.90;;;;;;;16.60;72.20;97276.00;5013509;28;20195;-69
2022/05/27 07:19:11;;;;;;;2.53;2.30;;;;;;;16.40;72.84;97267.84;5012613;28;20250;-69
2022/05/27 07:21:43;;;;;;;1.93;1.73;;;;;;;16.45;72.81;97267.88;5002374;28;20187;-70
2022/05/27 07:24:11;;;;;;;3.07;1.70;;;;;;;16.53;73.15;97264.78;5013375;28;20624;-69
2022/05/27 07:26:38;;;;;;;2.30;2.10;;;;;;;16.61;72.80;97264.34;5013406;28;20253;-69
2022/05/27 07:29:05;;;;;;;2.33;1.80;;;;;;;16.58;72.60;97268.25;5015936;28;20323;-70
2022/05/27 07:31:32;;;;;;;2.67;1.77;;;;;;;16.66;72.55;97272.34;5013453;28;20215;-70
2022/05/27 07:33:57;;;;;;;3.40;2.00;;;;;;;16.77;72.03;97270.56;4995182;28;20648;-70
2022/05/27 07:36:23;;;;;;;2.27;1.90;;;;;;;16.70;72.81;97275.25;5003806;28;20222;-70
2022/05/27 07:38:51;;;;;;;3.50;1.80;;;;;;;16.92;71.78;97265.38;5010266;28;20207;-70
2022/05/27 07:41:17;;;;;;;2.07;1.87;;;;;;;16.85;72.20;97267.44;5013230;28;20215;-70
2022/05/27 07:43:44;;;;;;;3.27;2.17;;;;;;;16.63;71.86;97267.53;5013285;28;20638;-70
2022/05/27 07:46:10;;;;;;;3.37;2.10;;;;;;;16.49;72.28;97258.41;5012664;28;20175;-69
2022/05/27 07:48:35;;;;;;;3.47;1.80;;;;;;;16.54;71.95;97261.88;5013454;28;20206;-70
2022/05/27 07:51:00;;;;;;;2.27;1.80;;;;;;;16.52;72.65;97271.13;5013275;28;20203;-70
2022/05/27 07:53:26;;;;;;;3.30;2.13;;;;;;;16.47;72.59;97269.22;5012622;28;20187;-70
2022/05/27 07:55:52;;;;;;;5.07;2.10;;;;;;;16.72;71.71;97281.13;5012855;28;20183;-69
2022/05/27 07:58:17;;;;;;;1.73;1.63;;;;;;;16.81;71.32;97269.78;5013131;28;20230;-69
2022/05/27 08:00:43;;;;;;;5.07;2.10;;;;;;;16.74;71.50;97274.50;5012907;28;20250;-69
2022/05/27 08:03:08;;;;;;;2.27;2.00;;;;;;;16.63;71.80;97276.28;5012631;28;20679;-69
2022/05/27 08:05:35;;;;;;;1.70;1.60;;;;;;;16.94;70.82;97266.69;5007735;28;20708;-70
2022/05/27 08:08:01;;;;;;;5.00;2.20;;;;;;;16.74;70.64;97269.22;5012099;28;20556;-70
2022/05/27 08:10:31;;;;;;;2.00;1.90;;;;;;;16.49;71.46;97264.50;5011602;28;20215;-70
2022/05/27 08:12:57;;;;;;;4.03;2.00;;;;;;;16.60;71.07;97266.22;5012309;28;20183;-70
2022/05/27 08:15:23;;;;;;;3.77;1.90;;;;;;;16.83;70.70;97261.59;5012487;28;20210;-70
2022/05/27 08:17:48;;;;;;;11.63;2.70;;;;;;;16.60;70.28;97268.84;4994232;28;20213;-69
2022/05/27 08:20:18;;;;;;;3.10;1.90;;;;;;;16.94;69.48;97264.03;5011755;28;20243;-70
2022/05/27 08:22:44;;;;;;;2.80;1.80;;;;;;;16.98;69.44;97275.75;5013158;28;20187;-70
2022/05/27 08:25:09;;;;;;;4.23;1.90;;;;;;;17.40;68.38;97270.41;5012699;28;20186;-69
2022/05/27 08:27:35;;;;;;;2.47;1.87;;;;;;;17.54;67.24;97275.25;5009944;28;20230;-70
2022/05/27 08:30:02;;;;;;;3.47;1.90;;;;;;;17.52;66.81;97269.41;5008774;28;20194;-69
2022/05/27 08:32:30;;;;;;;3.08;1.80;;;;;;;17.33;66.94;97266.41;5012243;28;20187;-71
2022/05/27 08:40:45;;;;;;;1.70;1.60;;;;;;;17.63;66.39;97273.72;5012173;28;20570;-70
2022/05/27 08:43:47;;;;;;;2.63;1.95;;;;;;;17.50;66.59;97276.81;4987862;28;20175;-70
2022/05/27 08:46:24;;;;;;;3.88;1.75;;;;;;;17.66;66.03;97274.00;5012254;28;20187;-70
2022/05/27 08:48:54;;;;;;;2.35;1.67;;;;;;;17.19;67.04;97276.66;5012667;28;20183;-69
2022/05/27 08:51:56;;;;;;;2.00;1.70;;;;;;;17.44;66.07;97282.06;5011923;28;20226;-70
2022/05/27 08:54:26;;;;;;;1.67;1.52;;;;;;;17.56;66.23;97284.53;5012359;28;20238;-71
2022/05/27 08:59:42;;;;;;;1.63;1.50;;;;;;;18.02;64.94;97285.53;5011617;28;20245;-70
2022/05/27 09:02:16;;;;;;;3.25;1.88;;;;;;;17.86;64.61;97281.22;5011264;28;20206;-70
2022/05/27 09:04:52;;;;;;;1.63;1.52;;;;;;;17.83;64.94;97274.56;5005713;28;20188;-71
2022/05/27 09:07:36;;;;;;;2.75;1.80;;;;;;;18.38;63.54;97274.97;5011974;28;20257;-70
2022/05/27 09:10:19;;;;;;;2.05;1.55;;;;;;;18.58;62.86;97273.16;5011301;28;20167;-69
2022/05/27 09:13:02;;;;;;;3.33;1.38;;;;;;;18.60;63.11;97279.00;5011022;28;20167;-71
2022/05/27 09:15:54;;;;;;;1.88;1.52;;;;;;;18.33;64.36;97272.31;5011829;28;20222;-71
2022/05/27 09:18:43;;;;;;;1.95;1.48;;;;;;;18.06;64.87;97272.53;5015882;28;20223;-70
2022/05/27 09:21:28;;;;;;;2.10;1.50;;;;;;;18.24;64.70;97277.34;5002253;28;20246;-69
2022/05/27 09:24:19;;;;;;;1.98;1.75;;;;;;;18.79;62.86;97270.50;5001670;28;20699;-69
2022/05/27 09:27:02;;;;;;;1.67;1.55;;;;;;;18.85;62.60;97275.53;5024392;28;20199;-69
2022/05/27 09:29:58;;;;;;;1.70;1.60;;;;;;;19.06;61.08;97266.47;5015244;28;20653;-69
2022/05/27 09:32:51;;;;;;;3.72;1.88;;;;;;;18.72;60.63;97277.94;5015404;28;20547;-69
2022/05/27 09:35:21;;;;;;;1.80;1.70;;;;;;;19.16;59.16;97268.34;4991009;28;20180;-69
2022/05/27 09:37:51;;;;;;;3.58;1.88;;;;;;;19.01;59.70;97263.81;5014959;28;20194;-69
2022/05/27 09:40:23;;;;;;;1.35;1.35;;;;;;;19.24;58.14;97274.94;4997842;28;20253;-69
2022/05/27 09:43:28;;;;;;;4.18;1.63;;;;;;;19.42;55.98;97269.06;5015296;28;20194;-69
2022/05/27 09:46:00;;;;;;;2.00;1.58;;;;;;;19.17;56.32;97261.94;4997703;28;20662;-69
2022/05/27 09:48:26;;;;;;;1.83;1.73;;;;;;;19.26;56.33;97256.88;5014733;28;20528;-70
2022/05/27 09:50:52;;;;;;;1.80;1.15;;;;;;;19.25;56.93;97256.06;5014912;28;20198;-69
2022/05/27 09:53:22;;;;;;;1.42;1.20;;;;;;;19.71;54.54;97255.94;5014440;28;20191;-69
2022/05/27 09:55:54;;;;;;;1.40;1.40;;;;;;;18.91;55.85;97257.72;5014896;28;20187;-69
2022/05/27 09:58:29;;;;;;;1.73;1.35;;;;;;;18.73;55.58;97259.06;5015026;28;20186;-69
2022/05/27 10:00:55;;;;;;;2.75;1.50;;;;;;;18.88;54.60;97240.50;5014530;28;20687;-69
2022/05/27 10:03:20;;;;;;;4.20;1.52;;;;;;;18.96;54.68;97252.41;5014318;28;20180;-69
2022/05/27 10:06:11;;;;;;;1.48;1.38;;;;;;;19.48;53.60;97239.56;5007934;28;20237;-68
2022/05/27 10:08:38;;;;;;;1.55;1.20;;;;;;;19.72;53.47;97238.94;5014783;28;20187;-68
2022/05/27 10:11:19;;;;;;;1.40;1.20;;;;;;;19.84;53.45;97232.19;5014188;28;20175;-69
2022/05/27 10:13:47;;;;;;;1.33;1.20;;;;;;;20.20;52.54;97240.75;5014538;28;20233;-69
2022/05/27 10:16:25;;;;;;;1.60;1.20;;;;;;;19.95;52.90;97234.81;5014658;28;20218;-69
2022/05/27 10:19:10;;;;;;;1.27;1.17;;;;;;;19.89;51.79;97229.50;5014056;28;20626;-69
2022/05/27 10:22:24;;;;;;;1.98;1.30;;;;;;;20.24;51.21;97212.50;5014370;28;20274;-69
2022/05/27 10:24:58;;;;;;;5.40;1.83;;;;;;;19.90;51.47;97215.13;4929055;29;20186;-68
2022/05/27 10:27:33;;;;;;;1.48;1.38;;;;;;;19.86;52.23;97211.44;5001975;28;20196;-69
2022/05/27 10:30:01;;;;;;;1.88;1.20;;;;;;;19.80;50.74;97211.72;4983633;28;20175;-69
2022/05/27 10:32:34;;;;;;;3.65;1.20;;;;;;;19.73;50.19;97214.69;5014385;28;20191;-69
2022/05/27 10:35:03;;;;;;;1.73;1.27;;;;;;;19.98;49.78;97207.63;5028344;28;20274;-69
2022/05/27 10:37:37;;;;;;;1.33;1.30;;;;;;;20.26;48.83;97210.38;5013671;28;20640;-70
2022/05/27 10:40:20;;;;;;;1.90;1.20;;;;;;;20.56;48.70;97209.34;5000799;28;20214;-69
2022/05/27 10:43:11;;;;;;;1.13;1.13;;;;;;;20.65;48.16;97210.34;5014390;28;20178;-69
2022/05/27 10:45:50;;;;;;;1.25;1.15;;;;;;;20.85;48.23;97205.88;5013796;28;20233;-69
2022/05/27 10:48:52;;;;;;;5.60;1.30;;;;;;;21.14;46.92;97201.31;5013533;28;20643;-69
2022/05/27 10:51:33;;;;;;;3.08;1.40;;;;;;;21.17;47.02;97208.00;5014208;28;20221;-68
2022/05/27 10:53:58;;;;;;;2.70;1.33;;;;;;;21.11;46.87;97210.69;5013795;28;20190;-69
2022/05/27 11:02:04;;;;;;;2.03;1.10;;;;;;;21.19;47.32;97198.63;5013905;28;20183;-68
2022/05/27 11:02:56;;;;;;;3.13;1.30;;;;;;;21.73;46.17;97195.56;5013581;28;20202;-67
2022/05/27 11:05:47;;;;;;;1.55;1.10;;;;;;;21.88;45.42;97189.22;5010306;28;20194;-68
2022/05/27 11:08:26;;;;;;;1.15;1.05;;;;;;;21.78;45.36;97187.50;4981722;28;20571;-69
2022/05/27 11:11:21;;;;;;;3.22;1.10;;;;;;;21.66;45.73;97184.44;5014376;28;20183;-69
2022/05/27 11:16:51;;;;;;;1.25;1.15;;;;;;;21.27;45.45;97175.88;5006744;28;20260;-68
2022/05/27 11:19:41;;;;;;;1.15;1.05;;;;;;;21.40;46.02;97188.53;4994097;28;20359;-69
2022/05/27 11:22:28;;;;;;;2.28;1.77;;;;;;;20.59;47.47;97181.38;4983045;28;20186;-69
2022/05/27 11:24:53;;;;;;;1.70;1.20;;;;;;;20.25;48.34;97176.03;5013397;28;20190;-69
2022/05/27 11:27:25;;;;;;;1.08;1.08;;;;;;;20.03;48.89;97186.31;5013425;28;20554;-68
2022/05/27 11:30:03;;;;;;;1.67;1.17;;;;;;;20.31;48.10;97180.25;5011479;28;20206;-68
2022/05/27 11:33:06;;;;;;;1.73;1.10;;;;;;;19.99;49.65;97182.63;5012960;28;20615;-69
2022/05/27 11:35:52;;;;;;;1.17;1.10;;;;;;;20.20;49.42;97186.72;5012747;28;20183;-68
2022/05/27 11:38:42;;;;;;;1.42;1.33;;;;;;;21.04;48.00;97180.13;5012650;28;20191;-68
2022/05/27 11:41:18;;;;;;;0.90;0.90;;;;;;;21.24;48.01;97179.91;5013616;28;20221;-68
2022/05/27 11:43:43;;;;;;;1.58;1.10;;;;;;;21.15;47.13;97177.09;5012781;28;20179;-68
2022/05/27 11:46:09;;;;;;;1.90;1.10;;;;;;;21.07;47.37;97172.34;5010513;28;20187;-69
2022/05/27 11:49:04;;;;;;;1.30;1.23;;;;;;;21.47;46.73;97173.75;5012762;28;20546;-68
2022/05/27 11:51:57;;;;;;;1.30;1.10;;;;;;;21.38;46.55;97167.47;5013015;28;20188;-68
2022/05/27 11:54:54;;;;;;;3.67;1.35;;;;;;;21.50;46.60;97175.06;5012254;28;20190;-69
2022/05/27 11:57:55;;;;;;;2.85;1.10;;;;;;;20.76;47.02;97163.09;5012466;28;20242;-69
2022/05/27 12:00:24;;;;;;;1.48;1.35;;;;;;;21.02;47.27;97168.94;5012459;28;20203;-68
2022/05/27 12:03:09;;;;;;;1.13;1.10;;;;;;;20.87;47.91;97177.91;5004736;28;20203;-69
2022/05/27 12:05:41;;;;;;;2.05;1.20;;;;;;;20.99;47.95;97161.50;5000706;28;20187;-69
2022/05/27 12:08:34;;;;;;;2.03;1.20;;;;;;;20.90;48.11;97158.66;5010636;28;20190;-69
2022/05/27 12:11:34;;;;;;;1.80;1.45;;;;;;;21.49;46.48;97152.94;5001186;28;20257;-69
2022/05/27 12:14:07;;;;;;;1.55;1.05;;;;;;;22.02;45.98;97154.59;4991082;28;20556;-69
2022/05/27 12:16:39;;;;;;;1.67;1.17;;;;;;;22.15;45.57;97148.53;5012244;28;20299;-69
2022/05/27 12:19:11;;;;;;;4.43;3.97;;;;;;;21.87;46.68;97147.59;5011167;28;20632;-69
2022/05/27 12:21:45;;;;;;;1.33;1.08;;;;;;;22.01;46.93;97142.34;5012683;28;20198;-69
2022/05/27 12:24:23;;;;;;;1.65;1.08;;;;;;;21.80;47.01;97147.94;5012349;28;20259;-69